Time;durP1;ratioP1;P1;durP2;ratioP2;P2;SDS_P1;SDS_P2;PMS_P1;PMS_P2;Temp;Humidity;BMP_temperature;BMP_pressure;BME280_temperature;BME280_humidity;BME280_pressure;Samples;Min_cycle;Max_cycle;Signal;HPM_P1;HPM_P2
2024/01/16 00:01:06;;;;;;;15.67;6.23;;;4.30;99.90;;;4.16;89.21;100791.88;4974819;28;20046;-67
2024/01/16 00:03:34;;;;;;;17.77;6.10;;;4.20;99.90;;;4.05;89.67;100796.88;4975020;28;20053;-68
2024/01/16 00:06:03;;;;;;;14.90;6.07;;;4.10;99.90;;;4.22;90.59;100815.56;4974169;28;20046;-67
2024/01/16 00:08:31;;;;;;;17.23;6.40;;;4.10;99.90;;;4.15;89.89;100814.53;4974173;28;20050;-69
2024/01/16 00:11:03;;;;;;;15.77;5.73;;;4.10;99.90;;;4.07;90.67;100823.97;4973182;28;20117;-67
2024/01/16 00:13:33;;;;;;;40.67;5.83;;;4.00;99.90;;;4.00;89.84;100814.22;4974401;28;20124;-68
2024/01/16 00:16:03;;;;;;;14.80;6.22;;;4.00;99.90;;;4.23;90.38;100820.81;4973944;28;20082;-68
2024/01/16 00:18:32;;;;;;;15.33;5.77;;;4.10;99.90;;;4.16;89.90;100818.91;4974469;28;20105;-67
2024/01/16 00:21:02;;;;;;;9.57;5.20;;;4.10;99.90;;;4.09;89.58;100813.53;4973947;28;20054;-68
2024/01/16 00:23:32;;;;;;;12.75;5.22;;;4.00;99.90;;;4.42;89.21;100820.31;4973964;28;20047;-68
2024/01/16 00:26:02;;;;;;;11.27;5.78;;;4.30;99.90;;;4.55;88.56;100817.06;4974157;28;20408;-68
2024/01/16 00:28:32;;;;;;;10.38;5.35;;;4.50;99.90;;;4.46;87.58;100816.03;4974609;28;20074;-68
2024/01/16 00:31:00;;;;;;;8.57;5.05;;;4.50;99.90;;;4.68;87.69;100817.31;4973511;28;20043;-69
2024/01/16 00:33:29;;;;;;;9.77;5.17;;;4.70;99.90;;;4.48;87.75;100845.75;4972788;28;20062;-68
2024/01/16 00:35:57;;;;;;;11.53;5.30;;;4.50;99.90;;;4.57;87.97;100817.09;4988817;28;20051;-68
2024/01/16 00:38:25;;;;;;;13.47;5.40;;;4.50;99.90;;;4.59;88.18;100824.13;4973596;28;20571;-67
2024/01/16 00:40:54;;;;;;;10.40;5.90;;;4.50;99.90;;;4.56;87.88;100820.59;4973556;28;20061;-67
2024/01/16 00:43:24;;;;;;;17.03;6.03;;;4.50;99.90;;;4.30;89.67;100816.56;4973583;28;20121;-69
2024/01/16 00:45:52;;;;;;;11.27;5.45;;;4.30;99.90;;;4.58;90.45;100814.53;4973511;28;20098;-68
2024/01/16 00:48:21;;;;;;;14.80;5.20;;;4.50;99.90;;;4.25;90.72;100805.13;4973491;28;20082;-67
2024/01/16 00:50:50;;;;;;;9.57;4.80;;;4.40;99.90;;;4.32;92.07;100815.75;4973343;28;20106;-66
2024/01/16 00:53:18;;;;;;;12.60;5.37;;;4.20;99.90;;;4.52;91.95;100822.28;4973348;28;20133;-68
2024/01/16 00:55:47;;;;;;;10.70;5.00;;;4.40;99.90;;;4.57;91.95;100820.59;4973235;28;20516;-66
2024/01/16 00:58:15;;;;;;;9.10;4.80;;;4.40;99.90;;;4.59;91.46;100824.13;4973503;28;20046;-68
2024/01/16 01:00:45;;;;;;;13.37;6.10;;;4.40;99.90;;;4.41;91.16;100821.16;4973396;28;20098;-68
2024/01/16 01:03:13;;;;;;;8.98;5.10;;;4.40;99.90;;;4.33;92.13;100828.00;4972250;28;20066;-69
2024/01/16 01:05:42;;;;;;;12.20;5.50;;;4.30;99.90;;;4.34;92.49;100807.91;4973604;28;20054;-68
2024/01/16 01:08:10;;;;;;;11.50;5.07;;;4.20;99.90;;;4.31;92.10;100834.94;4973048;28;20070;-68
2024/01/16 01:10:39;;;;;;;9.53;5.40;;;4.20;99.90;;;4.31;92.77;100832.31;4973471;28;20050;-68
2024/01/16 01:13:07;;;;;;;13.27;5.80;;;4.20;99.90;;;4.43;92.67;100837.78;4972943;28;20038;-68
2024/01/16 01:15:35;;;;;;;11.40;5.53;;;4.20;99.90;;;4.48;92.49;100833.53;4973246;28;20049;-67
2024/01/16 01:18:06;;;;;;;11.00;5.33;;;4.30;99.90;;;4.56;92.89;100839.81;4972811;28;20126;-68
2024/01/16 01:20:35;;;;;;;12.83;5.57;;;4.40;99.90;;;4.39;92.11;100846.44;4973343;28;20051;-68
2024/01/16 01:23:04;;;;;;;15.17;5.53;;;4.30;99.90;;;3.96;94.28;100848.13;4973021;28;20062;-68
2024/01/16 01:25:32;;;;;;;13.40;6.10;;;3.90;99.90;;;3.75;94.58;100837.22;4972735;28;20047;-69
2024/01/16 01:28:00;;;;;;;8.77;5.03;;;3.80;99.90;;;3.48;95.64;100838.34;4987835;28;20570;-68
2024/01/16 01:30:29;;;;;;;7.73;5.03;;;3.50;99.90;;;3.41;97.05;100825.97;4972556;28;20114;-68
2024/01/16 01:32:57;;;;;;;8.07;5.07;;;3.40;99.90;;;3.35;97.41;100819.72;4972985;28;20054;-68
2024/01/16 01:35:27;;;;;;;6.23;4.97;;;3.30;99.90;;;3.48;96.70;100821.78;4972551;28;20055;-67
2024/01/16 01:37:56;;;;;;;9.50;5.15;;;3.40;99.90;;;3.39;96.84;100817.22;4972832;28;20406;-68
2024/01/16 01:40:24;;;;;;;9.60;4.50;;;3.30;99.90;;;3.37;96.12;100823.25;4972423;28;20043;-68
2024/01/16 01:42:52;;;;;;;6.03;4.77;;;3.30;99.90;;;3.38;95.69;100838.09;4972467;28;20528;-67
2024/01/16 01:45:21;;;;;;;7.77;4.73;;;3.40;99.90;;;3.78;95.44;100832.91;4972478;28;20043;-68
2024/01/16 01:47:50;;;;;;;10.53;4.87;;;3.60;99.90;;;3.95;94.50;100834.16;4972682;28;20241;-68
2024/01/16 01:50:19;;;;;;;7.63;4.43;;;3.80;99.90;;;4.14;93.58;100840.69;4972502;28;20097;-68
2024/01/16 01:52:49;;;;;;;6.47;5.43;;;4.00;99.90;;;4.19;93.06;100837.31;4972254;28;20125;-67
2024/01/16 01:55:17;;;;;;;6.63;4.95;;;4.10;99.90;;;4.15;92.93;100827.63;4972717;28;20054;-68
2024/01/16 01:57:46;;;;;;;7.57;4.70;;;4.10;99.90;;;4.31;92.32;100824.47;4987292;28;20496;-67
2024/01/16 02:00:17;;;;;;;12.27;5.50;;;4.10;99.90;;;4.44;92.22;100829.09;4971196;28;20106;-68
2024/01/16 02:02:47;;;;;;;9.70;5.40;;;4.30;99.90;;;4.47;91.24;100838.75;4972438;28;20050;-68
2024/01/16 02:05:16;;;;;;;8.13;4.97;;;4.30;99.90;;;4.28;91.37;100836.59;4972432;28;20093;-68
2024/01/16 02:07:45;;;;;;;8.53;5.07;;;4.20;99.90;;;4.32;91.77;100844.56;4972415;28;20043;-67
2024/01/16 02:10:14;;;;;;;14.03;5.37;;;4.20;99.90;;;4.64;91.58;100844.28;4972047;28;20089;-68
2024/01/16 02:12:43;;;;;;;11.00;5.65;;;4.40;99.90;;;4.77;91.28;100839.31;4972374;28;20047;-68
2024/01/16 02:15:12;;;;;;;9.13;5.10;;;4.60;99.90;;;4.86;90.64;100833.38;4972094;28;20047;-69
2024/01/16 02:17:40;;;;;;;10.27;5.07;;;4.70;99.90;;;5.00;90.07;100837.09;4972228;28;20054;-67
2024/01/16 02:20:11;;;;;;;11.83;5.73;;;4.90;99.90;;;5.01;89.78;100837.13;4971986;28;20043;-68
2024/01/16 02:22:40;;;;;;;9.95;6.10;;;4.90;99.90;;;5.02;90.17;100832.75;4972428;28;20051;-69
2024/01/16 02:25:10;;;;;;;14.57;5.53;;;4.90;99.90;;;5.08;90.42;100836.38;4987141;28;20142;-68
2024/01/16 02:27:39;;;;;;;12.88;5.05;;;5.00;99.90;;;5.09;90.80;100834.66;4971961;28;20063;-69
2024/01/16 02:30:08;;;;;;;11.03;5.87;;;5.00;99.90;;;4.92;90.61;100842.19;4972101;28;20050;-69
2024/01/16 02:32:36;;;;;;;10.05;5.22;;;4.90;99.90;;;4.96;91.50;100833.53;4971835;28;20134;-68
2024/01/16 02:35:06;;;;;;;8.23;4.97;;;4.90;99.90;;;4.91;91.29;100840.44;4971811;28;20504;-67
2024/01/16 02:37:34;;;;;;;8.37;5.27;;;4.80;99.90;;;4.84;91.04;100830.69;4971947;28;20042;-69
2024/01/16 02:40:05;;;;;;;11.70;5.57;;;4.70;99.90;;;4.85;91.58;100823.72;4971806;28;20051;-68
2024/01/16 02:42:36;;;;;;;9.32;5.32;;;4.60;99.90;;;4.83;91.93;100818.47;4971927;28;20133;-68
2024/01/16 02:45:05;;;;;;;12.80;5.18;;;4.60;99.90;;;4.80;92.10;100818.41;4972077;28;20058;-68
2024/01/16 02:47:34;;;;;;;9.23;4.82;;;4.60;99.90;;;4.79;92.15;100826.22;4971734;28;20047;-68
2024/01/16 02:50:03;;;;;;;9.32;5.28;;;4.60;99.90;;;4.84;92.16;100822.84;4986877;28;20121;-68
2024/01/16 02:52:32;;;;;;;9.02;4.88;;;4.60;99.90;;;4.86;92.11;100817.66;4971716;28;20046;-68
2024/01/16 02:55:00;;;;;;;7.70;5.10;;;4.60;99.90;;;4.85;92.12;100821.09;4972002;28;20066;-69
2024/01/16 02:57:28;;;;;;;8.90;4.82;;;4.60;99.90;;;4.68;92.30;100819.94;4971603;28;20043;-69
2024/01/16 02:59:58;;;;;;;11.90;5.10;;;4.50;99.90;;;4.62;93.07;100817.19;4971850;28;20066;-68
2024/01/16 03:02:26;;;;;;;11.07;6.00;;;4.40;99.90;;;4.64;93.76;100810.25;4971871;28;20039;-68
2024/01/16 03:04:54;;;;;;;8.50;5.37;;;4.40;99.90;;;4.64;93.40;100807.63;4971571;28;20041;-68
2024/01/16 03:07:23;;;;;;;8.27;4.70;;;4.40;99.90;;;4.69;93.43;100801.63;4970541;28;20760;-69
2024/01/16 03:09:51;;;;;;;7.70;4.83;;;4.50;99.90;;;4.76;93.78;100805.25;4971862;28;20047;-68
2024/01/16 03:12:19;;;;;;;10.10;5.30;;;4.50;99.90;;;4.88;93.54;100800.22;4971504;28;20074;-69
2024/01/16 03:14:48;;;;;;;11.93;5.17;;;4.60;99.90;;;4.93;93.01;100799.44;4971480;28;20046;-69
2024/01/16 03:17:17;;;;;;;12.43;5.60;;;4.80;99.90;;;4.95;92.41;100799.44;4971365;28;20101;-68
2024/01/16 03:19:46;;;;;;;8.40;5.13;;;4.80;99.90;;;4.93;92.44;100799.44;4971749;28;20043;-69
2024/01/16 03:22:15;;;;;;;8.97;5.60;;;4.80;99.90;;;4.91;92.57;100795.00;4971392;28;20051;-68
2024/01/16 03:24:43;;;;;;;9.13;5.27;;;4.80;99.90;;;4.82;91.89;100795.72;4971615;28;20055;-68
2024/01/16 03:27:11;;;;;;;8.93;5.50;;;4.70;99.90;;;4.79;92.69;100795.69;4974897;28;20113;-67
2024/01/16 03:29:40;;;;;;;8.57;5.60;;;4.60;99.90;;;4.80;92.44;100796.56;4974881;28;20070;-67
2024/01/16 03:32:08;;;;;;;8.37;5.30;;;4.60;99.90;;;4.82;92.24;100798.34;4974908;28;20051;-69
2024/01/16 03:34:38;;;;;;;8.03;5.43;;;4.60;99.90;;;4.86;92.69;100791.44;4974791;28;20046;-68
2024/01/16 03:37:06;;;;;;;10.07;6.53;;;4.60;99.90;;;4.89;92.36;100787.13;4974949;28;20053;-68
2024/01/16 03:39:35;;;;;;;13.67;5.30;;;4.70;99.90;;;4.96;92.13;100793.34;4974817;28;20133;-68
2024/01/16 03:42:03;;;;;;;10.70;5.30;;;4.70;99.90;;;4.98;91.67;100796.88;4974904;28;20435;-69
2024/01/16 03:44:32;;;;;;;12.02;5.28;;;4.80;99.90;;;4.89;91.44;100807.22;4974625;28;20076;-68
2024/01/16 03:47:00;;;;;;;10.03;5.43;;;4.70;99.90;;;4.26;92.72;100781.59;4974474;28;20050;-68
2024/01/16 03:49:28;;;;;;;10.80;5.67;;;4.40;99.90;;;3.98;94.87;100797.63;4974549;28;20125;-68
2024/01/16 03:51:59;;;;;;;12.30;5.50;;;4.00;99.90;;;3.87;96.82;100769.47;4974822;28;20476;-69
2024/01/16 03:54:27;;;;;;;8.65;5.32;;;3.90;99.90;;;4.28;96.43;100797.31;4974770;28;20055;-68
2024/01/16 03:56:56;;;;;;;10.37;5.47;;;4.10;99.90;;;4.24;96.65;100793.78;4974877;28;20070;-68
2024/01/16 03:59:24;;;;;;;9.43;5.43;;;4.10;99.90;;;4.39;96.51;100788.81;4974499;28;20472;-69
2024/01/16 04:01:53;;;;;;;8.10;5.83;;;4.30;99.90;;;4.48;96.36;100786.41;4974647;28;20078;-69
2024/01/16 04:04:22;;;;;;;10.67;6.03;;;4.30;99.90;;;4.52;95.92;100792.56;4974682;28;20051;-67
2024/01/16 04:06:51;;;;;;;10.77;5.82;;;4.40;99.90;;;4.66;95.89;100790.19;4974222;28;20400;-70
2024/01/16 04:09:21;;;;;;;9.07;5.63;;;4.50;99.90;;;4.70;95.23;100785.06;4974366;28;20378;-67
2024/01/16 04:11:51;;;;;;;11.55;5.65;;;4.50;99.90;;;4.80;95.22;100780.84;4974649;28;20735;-69
2024/01/16 04:14:21;;;;;;;14.15;5.30;;;4.60;99.90;;;4.85;94.50;100777.47;4974043;28;20043;-68
2024/01/16 04:16:50;;;;;;;7.47;5.03;;;4.70;99.90;;;4.88;94.45;100780.13;4974089;28;20105;-69
2024/01/16 04:19:18;;;;;;;8.00;5.50;;;4.70;99.90;;;4.89;94.22;100776.66;4972906;28;20050;-68
2024/01/16 04:21:47;;;;;;;11.50;5.17;;;4.70;99.90;;;4.80;93.77;100770.38;4973918;28;20104;-69
2024/01/16 04:24:15;;;;;;;8.82;5.25;;;4.60;99.90;;;4.91;93.75;100768.81;4974451;28;20050;-69
2024/01/16 04:26:45;;;;;;;12.77;5.90;;;4.70;99.90;;;4.96;93.80;100767.13;4973806;28;20508;-68
2024/01/16 04:29:14;;;;;;;11.63;6.18;;;4.70;99.90;;;4.99;93.02;100772.44;4973912;28;20101;-70
2024/01/16 04:31:42;;;;;;;10.50;5.55;;;4.70;99.90;;;4.99;93.16;100772.44;4973791;28;20058;-69
2024/01/16 04:34:11;;;;;;;10.25;6.15;;;4.80;99.90;;;5.00;93.22;100766.31;4974005;28;20043;-68
2024/01/16 04:36:39;;;;;;;6.53;5.53;;;4.80;99.90;;;4.89;92.79;100763.56;4973496;28;20053;-68
2024/01/16 04:39:08;;;;;;;7.20;5.45;;;4.70;99.90;;;4.74;93.35;100763.31;4972508;28;20455;-69
2024/01/16 04:41:37;;;;;;;13.97;5.97;;;4.60;99.90;;;4.57;93.39;100765.59;4973521;28;20078;-68
2024/01/16 04:44:06;;;;;;;13.85;6.20;;;4.50;99.90;;;4.54;94.14;100765.56;4973545;28;20059;-67
2024/01/16 04:46:35;;;;;;;9.68;6.18;;;4.40;99.90;;;4.65;94.09;100764.84;4973516;28;20397;-68
2024/01/16 04:49:03;;;;;;;13.80;6.47;;;4.50;99.90;;;4.65;93.95;100770.09;4973526;28;20050;-68
2024/01/16 04:51:31;;;;;;;10.43;6.77;;;4.50;99.90;;;4.64;94.07;100766.63;4973378;28;20424;-68
2024/01/16 04:54:00;;;;;;;12.30;5.83;;;4.50;99.90;;;4.64;94.16;100763.09;4973357;28;20563;-69
2024/01/16 04:56:28;;;;;;;13.00;6.10;;;4.50;99.90;;;4.63;94.16;100754.34;4973547;28;20039;-68
2024/01/16 04:58:56;;;;;;;9.77;5.90;;;4.50;99.90;;;4.67;93.85;100758.78;4973211;28;20051;-68
2024/01/16 05:01:26;;;;;;;17.58;6.85;;;4.60;99.90;;;4.65;94.03;100757.88;4973158;28;20066;-68
2024/01/16 05:03:54;;;;;;;12.77;5.70;;;4.50;99.90;;;4.68;93.56;100754.44;4973195;28;20051;-68
2024/01/16 05:06:23;;;;;;;17.17;6.95;;;4.50;99.90;;;4.70;93.52;100755.34;4973080;28;20046;-69
2024/01/16 05:08:51;;;;;;;14.00;6.17;;;4.60;99.90;;;4.65;93.34;100750.03;4973339;28;20046;-69
2024/01/16 05:11:20;;;;;;;13.23;6.20;;;4.60;99.90;;;4.75;93.63;100746.72;4973239;28;20047;-69
2024/01/16 05:13:48;;;;;;;8.90;5.53;;;4.60;99.90;;;4.79;93.08;100738.06;4973108;28;20069;-67
2024/01/16 05:16:16;;;;;;;11.97;6.67;;;4.60;99.90;;;4.84;92.70;100735.50;4972857;28;20042;-68
2024/01/16 05:18:46;;;;;;;13.07;6.97;;;4.60;99.90;;;4.90;92.31;100733.84;4972823;28;20070;-69
2024/01/16 05:21:15;;;;;;;13.48;6.57;;;4.70;99.90;;;4.95;91.43;100729.59;4972851;28;20054;-68
2024/01/16 05:23:43;;;;;;;14.50;6.53;;;4.80;99.90;;;5.03;90.73;100721.84;4973194;28;20054;-68
2024/01/16 05:26:11;;;;;;;15.57;5.85;;;4.90;99.90;;;4.96;89.38;100714.72;4973023;28;20046;-68
2024/01/16 05:28:40;;;;;;;17.50;6.17;;;4.90;99.90;;;5.03;88.48;100717.47;4972697;28;20101;-68
2024/01/16 05:31:08;;;;;;;14.30;6.97;;;4.90;99.90;;;5.02;86.72;100720.06;4972760;28;20484;-68
2024/01/16 05:33:37;;;;;;;12.87;6.60;;;4.90;99.90;;;4.98;85.32;100719.13;4972569;28;20063;-68
2024/01/16 05:36:08;;;;;;;14.20;6.68;;;4.90;99.90;;;5.01;84.39;100719.22;4972785;28;20046;-68
2024/01/16 05:38:37;;;;;;;10.20;6.13;;;4.90;99.90;;;5.06;83.55;100707.03;4972609;28;20061;-68
2024/01/16 05:41:06;;;;;;;9.93;5.60;;;4.90;99.90;;;5.10;82.50;100710.59;4972763;28;20070;-68
2024/01/16 05:43:34;;;;;;;14.50;6.87;;;4.90;99.90;;;5.02;81.47;100696.47;4972693;28;20046;-69
2024/01/16 05:46:03;;;;;;;15.45;5.93;;;4.90;99.90;;;5.05;80.76;100705.25;4972380;28;20046;-68
2024/01/16 05:48:31;;;;;;;16.50;6.68;;;5.00;99.90;;;5.02;79.94;100700.00;4972397;28;20070;-68
2024/01/16 05:50:59;;;;;;;11.20;6.00;;;4.90;99.90;;;5.05;78.82;100701.78;4972630;28;20133;-69
2024/01/16 05:53:29;;;;;;;13.20;5.80;;;4.90;99.90;;;5.09;77.99;100691.34;4972436;28;20455;-69
2024/01/16 05:55:58;;;;;;;11.20;5.63;;;5.00;99.90;;;5.03;77.67;100693.00;4971239;28;20055;-69
2024/01/16 05:58:26;;;;;;;10.93;6.20;;;4.90;99.90;;;4.93;77.68;100686.75;4972229;28;20034;-68
2024/01/16 06:00:55;;;;;;;10.43;6.13;;;4.80;99.90;;;5.01;77.28;100692.09;4972222;28;20085;-68
2024/01/16 06:03:24;;;;;;;11.70;6.03;;;4.90;99.90;;;5.03;76.63;100687.78;4972192;28;20497;-69
2024/01/16 06:05:52;;;;;;;13.93;5.78;;;4.90;99.90;;;5.03;76.66;100691.25;4972253;28;20467;-68
2024/01/16 06:08:20;;;;;;;12.57;6.20;;;4.90;99.90;;;5.04;76.36;100686.91;4972398;28;20050;-69
2024/01/16 06:10:50;;;;;;;11.87;5.80;;;4.90;99.90;;;5.15;76.31;100682.72;4972588;28;20665;-69
2024/01/16 06:13:19;;;;;;;8.80;5.72;;;5.00;99.90;;;5.27;76.06;100683.75;4972049;28;20047;-69
2024/01/16 06:15:48;;;;;;;11.10;5.93;;;5.10;99.90;;;5.35;75.83;100686.47;4972043;28;20070;-69
2024/01/16 06:18:16;;;;;;;15.40;6.00;;;5.20;99.90;;;5.21;75.72;100680.16;4971043;28;20446;-67
2024/01/16 06:20:45;;;;;;;11.23;6.03;;;5.10;99.90;;;5.32;75.24;100689.94;4971940;28;20043;-69
2024/01/16 06:23:13;;;;;;;13.60;5.30;;;5.20;99.90;;;5.39;75.58;100685.66;4971930;28;20042;-69
2024/01/16 06:25:42;;;;;;;10.57;5.88;;;5.20;99.90;;;5.44;75.32;100697.06;4972146;28;20054;-68
2024/01/16 06:28:11;;;;;;;10.80;6.25;;;5.30;99.90;;;5.32;74.87;100691.69;4971835;28;20047;-67
2024/01/16 06:30:40;;;;;;;11.70;6.53;;;5.20;99.90;;;5.24;74.33;100694.22;4987007;28;20061;-69
2024/01/16 06:33:08;;;;;;;9.53;6.27;;;5.10;99.90;;;5.29;74.36;100699.50;4971941;28;20086;-67
2024/01/16 06:35:37;;;;;;;13.27;5.82;;;5.20;99.90;;;5.25;74.04;100689.81;4971836;28;20059;-69
2024/01/16 06:38:05;;;;;;;12.10;5.50;;;5.10;99.90;;;5.15;73.51;100690.56;4971815;28;20063;-69
2024/01/16 06:40:34;;;;;;;11.15;5.85;;;5.10;99.90;;;5.05;73.95;100702.63;4972259;28;20137;-68
2024/01/16 06:43:03;;;;;;;9.03;5.73;;;5.00;99.90;;;5.00;74.65;100698.19;4971768;28;20050;-68
2024/01/16 06:45:32;;;;;;;13.38;5.25;;;4.90;99.90;;;5.12;74.46;100696.66;4986948;28;20125;-69
2024/01/16 06:48:01;;;;;;;9.20;5.78;;;5.00;99.90;;;5.07;74.33;100697.44;4972256;28;20058;-68
2024/01/16 06:50:30;;;;;;;11.98;6.18;;;4.90;99.90;;;5.17;74.33;100697.59;4971927;28;20053;-69
2024/01/16 06:52:58;;;;;;;15.32;6.38;;;5.00;99.90;;;5.23;74.36;100692.44;4971551;28;20070;-66
2024/01/16 06:55:26;;;;;;;17.45;6.07;;;5.10;99.90;;;5.21;74.15;100699.38;4971850;28;20055;-68
2024/01/16 06:57:55;;;;;;;18.85;6.55;;;5.10;99.90;;;5.06;74.26;100703.53;4970704;28;20146;-68
2024/01/16 07:00:25;;;;;;;12.43;5.18;;;5.00;99.90;;;5.05;74.21;100707.03;4972665;28;20492;-67
2024/01/16 07:02:55;;;;;;;12.60;6.55;;;4.90;99.90;;;5.07;73.93;100702.69;4975854;28;20047;-68
2024/01/16 07:05:24;;;;;;;15.60;6.60;;;4.90;99.90;;;5.05;73.54;100694.78;4975325;28;20050;-67
2024/01/16 07:07:53;;;;;;;9.98;6.15;;;5.00;99.90;;;5.03;73.13;100695.63;4975577;28;20046;-68
2024/01/16 07:10:22;;;;;;;14.10;5.60;;;4.90;99.90;;;5.08;72.90;100699.19;4975331;28;20077;-67
2024/01/16 07:12:51;;;;;;;15.70;6.75;;;5.00;99.90;;;5.05;72.96;100692.16;4974235;28;20043;-69
2024/01/16 07:15:20;;;;;;;9.02;5.95;;;5.00;99.90;;;5.04;72.81;100703.50;4975106;28;20047;-69
2024/01/16 07:17:48;;;;;;;12.23;5.67;;;4.90;99.90;;;5.01;72.63;100703.47;4975371;28;20047;-68
2024/01/16 07:20:18;;;;;;;12.60;5.70;;;5.00;99.90;;;4.94;72.56;100726.91;4990120;28;20055;-69
2024/01/16 07:22:47;;;;;;;15.63;6.72;;;4.90;99.90;;;5.02;72.81;100713.09;4975219;28;20133;-68
2024/01/16 07:25:15;;;;;;;13.25;6.22;;;5.00;99.90;;;5.09;72.48;100716.69;4974909;28;20047;-67
2024/01/16 07:27:46;;;;;;;14.43;5.93;;;5.00;99.90;;;5.13;72.41;100714.13;4974901;28;20049;-68
2024/01/16 07:30:15;;;;;;;12.35;5.95;;;5.00;99.90;;;5.15;72.70;100714.16;4975015;28;20661;-68
2024/01/16 07:32:43;;;;;;;12.45;5.53;;;5.00;99.90;;;5.09;72.18;100717.56;4974877;28;20050;-68
2024/01/16 07:35:13;;;;;;;11.57;5.33;;;5.00;99.90;;;5.03;71.68;100722.69;4974785;28;20039;-70
2024/01/16 07:37:43;;;;;;;14.50;6.72;;;5.00;99.90;;;5.00;71.09;100721.78;4974752;28;20078;-73
2024/01/16 07:40:12;;;;;;;11.63;6.57;;;4.90;99.90;;;4.95;71.39;100726.06;4974669;28;20146;-67
2024/01/16 07:42:40;;;;;;;9.82;5.45;;;4.90;99.90;;;5.04;71.00;100732.34;4974667;28;20126;-68
2024/01/16 07:45:10;;;;;;;11.40;5.32;;;4.90;99.90;;;5.10;70.98;100740.31;4974720;28;20050;-68
2024/01/16 07:47:39;;;;;;;15.93;5.22;;;5.00;99.90;;;5.03;71.13;100719.22;4974581;28;20428;-68
2024/01/16 07:50:08;;;;;;;8.13;5.30;;;5.00;99.90;;;5.16;70.47;100729.91;4974664;28;20057;-70
2024/01/16 07:52:37;;;;;;;7.40;5.50;;;5.10;99.90;;;5.01;70.00;100729.69;4974727;28;20047;-69
2024/01/16 07:55:07;;;;;;;8.57;5.67;;;5.00;99.90;;;5.08;69.98;100739.41;4974470;28;20121;-67
2024/01/16 07:57:36;;;;;;;8.27;5.68;;;5.00;99.90;;;5.07;69.77;100736.75;4974498;28;20582;-71
2024/01/16 08:00:11;;;;;;;10.57;5.63;;;5.00;99.90;;;5.07;69.50;100736.75;4974276;28;20125;-68
2024/01/16 08:02:41;;;;;;;8.27;5.25;;;4.90;99.90;;;5.14;70.00;100733.34;4974262;28;20050;-70
2024/01/16 08:05:10;;;;;;;8.93;5.47;;;5.00;99.90;;;5.11;69.51;100730.72;4974423;28;20050;-67
2024/01/16 08:07:39;;;;;;;9.98;5.60;;;5.00;99.90;;;4.97;69.64;100727.00;4974333;28;20050;-69
2024/01/16 08:10:10;;;;;;;17.90;6.90;;;4.90;99.90;;;4.95;68.94;100734.84;4974107;28;20051;-67
2024/01/16 08:12:39;;;;;;;11.10;6.37;;;4.90;99.90;;;4.87;68.54;100725.97;4973941;28;20109;-67
2024/01/16 08:15:08;;;;;;;11.53;6.07;;;4.80;99.90;;;5.05;69.20;100725.38;4974117;28;20066;-70
2024/01/16 08:17:36;;;;;;;8.63;5.73;;;5.00;99.90;;;5.03;68.53;100738.44;4974004;28;20035;-68
2024/01/16 08:20:05;;;;;;;10.73;6.23;;;4.90;99.90;;;5.07;68.25;100735.00;4973828;28;20380;-71
2024/01/16 08:22:34;;;;;;;7.33;5.57;;;5.00;99.90;;;5.13;68.02;100735.09;4973916;28;20347;-70
2024/01/16 08:25:04;;;;;;;9.43;5.40;;;5.00;99.90;;;5.17;67.98;100730.78;4973838;28;20082;-67
2024/01/16 08:27:34;;;;;;;;;;;5.00;99.90;;;5.10;66.73;100726.31;4974616;28;20058;-70
2024/01/16 08:30:02;;;;;;;8.18;5.32;;;5.00;99.90;;;5.00;65.44;100732.25;4973549;28;20496;-69
2024/01/16 08:32:31;;;;;;;6.25;5.65;;;4.90;99.90;;;5.07;64.87;100736.75;4973430;28;20057;-69
2024/01/16 08:35:00;;;;;;;8.02;4.95;;;5.00;99.90;;;5.08;64.22;100743.75;4973844;28;20053;-74
2024/01/16 08:37:28;;;;;;;11.52;5.20;;;5.00;99.90;;;5.07;64.23;100739.38;4973859;28;20520;-71
2024/01/16 08:39:57;;;;;;;9.17;5.20;;;4.90;99.90;;;5.08;63.81;100725.41;4973477;28;20097;-69
2024/01/16 08:42:26;;;;;;;6.45;4.85;;;5.00;99.90;;;5.16;64.14;100723.78;4973574;28;20058;-71
2024/01/16 08:44:56;;;;;;;9.43;4.85;;;5.00;99.90;;;5.04;63.18;100723.59;4973711;28;20043;-68
2024/01/16 08:47:25;;;;;;;8.73;5.55;;;4.90;99.90;;;5.04;63.67;100729.72;4973490;28;20121;-75
2024/01/16 08:49:54;;;;;;;8.88;5.70;;;4.90;99.90;;;5.18;63.67;100722.06;4973624;28;20117;-76
2024/01/16 08:52:23;;;;;;;6.60;5.13;;;5.00;99.90;;;5.18;63.15;100725.56;4973326;28;20672;-77
2024/01/16 08:54:51;;;;;;;8.02;4.70;;;5.00;99.90;;;5.25;63.04;100724.78;4973612;28;20050;-85
2024/01/16 08:57:19;;;;;;;10.93;5.95;;;5.10;99.90;;;5.29;63.17;100721.38;4973984;28;20070;-83
2024/01/16 08:59:50;;;;;;;10.80;5.35;;;5.20;99.90;;;5.12;62.53;100721.97;4973889;28;20098;-85
2024/01/16 09:02:21;;;;;;;8.90;5.00;;;5.10;99.90;;;5.07;62.21;100721.88;4973812;28;20130;-80
2024/01/16 09:04:50;;;;;;;;;;;5.00;99.90;;;4.98;61.63;100731.34;4974175;28;20050;-84
2024/01/16 09:07:18;;;;;;;7.53;5.10;;;4.90;99.90;;;5.02;61.26;100733.16;4973823;28;19929;-84
2024/01/16 09:09:47;;;;;;;9.05;5.45;;;4.90;99.90;;;4.56;61.34;100648.63;4973167;28;20042;-83
2024/01/16 09:12:16;;;;;;;8.03;5.20;;;5.00;99.90;;;5.07;61.83;100740.25;4973213;28;20094;-84
2024/01/16 09:14:45;;;;;;;8.38;5.28;;;4.90;99.90;;;5.05;61.79;100735.84;4973186;28;20047;-83
2024/01/16 09:17:13;;;;;;;14.82;5.65;;;4.90;99.90;;;4.99;61.82;100734.03;4973417;28;20101;-81
2024/01/16 09:19:44;;;;;;;9.80;5.37;;;4.90;99.90;;;5.01;62.13;100734.94;4973135;28;20565;-83
2024/01/16 09:22:12;;;;;;;8.98;4.82;;;4.90;99.90;;;5.08;62.17;100736.78;4972991;28;20043;-83
2024/01/16 09:24:41;;;;;;;10.50;6.18;;;5.00;99.90;;;5.00;62.72;100734.88;4972356;28;20515;-81
2024/01/16 09:27:09;;;;;;;8.57;5.30;;;4.90;99.90;;;5.04;61.94;100720.97;4973265;28;20396;-82
2024/01/16 09:29:38;;;;;;;7.35;5.57;;;4.90;99.90;;;5.07;62.20;100731.53;4987762;28;20051;-80
2024/01/16 09:32:07;;;;;;;6.88;5.28;;;4.90;99.90;;;5.16;61.68;100731.66;4972729;28;20133;-83
2024/01/16 09:34:35;;;;;;;8.43;5.65;;;5.00;99.90;;;5.08;61.39;100747.25;4972833;28;20043;-83
2024/01/16 09:37:05;;;;;;;6.35;4.88;;;5.10;99.90;;;5.25;61.39;100729.16;4972919;28;20400;-75
2024/01/16 09:39:34;;;;;;;9.68;5.55;;;5.20;99.90;;;4.58;61.46;100625.97;4972804;28;20069;-77
2024/01/16 09:42:03;;;;;;;8.40;5.30;;;5.10;99.90;;;5.16;61.19;100736.88;4972679;28;20074;-82
2024/01/16 09:44:31;;;;;;;10.88;6.50;;;5.00;99.90;;;5.23;61.03;100730.88;4972713;28;20653;-77
2024/01/16 09:47:03;;;;;;;11.32;4.88;;;5.10;99.90;;;5.60;62.76;100727.00;4972632;28;20050;-66
2024/01/16 09:49:31;;;;;;;6.80;5.10;;;5.40;99.90;;;5.81;60.71;100727.28;4972395;28;20049;-72
2024/01/16 09:52:01;;;;;;;9.80;4.75;;;5.70;99.90;;;6.09;60.27;100721.53;4987485;28;20062;-80
2024/01/16 09:54:31;;;;;;;9.82;4.60;;;5.90;99.90;;;6.58;60.91;100729.03;4972337;28;20101;-70
2024/01/16 09:57:00;;;;;;;8.30;4.25;;;6.40;99.90;;;6.99;60.48;100734.66;4972578;28;20385;-70
2024/01/16 09:59:31;;;;;;;12.73;4.88;;;6.80;99.90;;;7.30;58.39;100736.63;4972116;28;20046;-70
2024/01/16 10:02:00;;;;;;;10.20;4.80;;;7.20;99.90;;;7.75;58.23;100718.47;4972170;28;20077;-70
2024/01/16 10:04:29;;;;;;;8.23;5.00;;;7.60;99.90;;;8.07;57.20;100718.59;4972962;28;20046;-70
2024/01/16 10:07:01;;;;;;;9.00;4.85;;;7.90;99.90;;;8.29;55.12;100716.91;4987242;28;20404;-69
2024/01/16 10:09:30;;;;;;;9.07;3.90;;;8.20;99.90;;;8.15;52.59;100723.00;4972671;28;20098;-71
2024/01/16 10:12:00;;;;;;;5.07;3.60;;;8.20;99.90;;;8.06;52.75;100717.72;4972172;28;20074;-71
2024/01/16 10:14:29;;;;;;;6.30;3.63;;;8.00;99.90;;;8.06;52.17;100720.34;4971987;28;20066;-69
2024/01/16 10:17:05;;;;;;;8.43;4.20;;;7.90;99.90;;;8.13;52.97;100722.13;4972541;28;20054;-70
2024/01/16 10:19:34;;;;;;;8.52;4.38;;;7.90;99.90;;;8.47;52.23;100724.88;4971962;28;20046;-70
2024/01/16 10:22:21;;;;;;;7.75;4.20;;;8.30;99.90;;;8.49;51.04;100725.75;4986948;28;20528;-70
2024/01/16 10:25:06;;;;;;;7.00;4.00;;;8.40;99.90;;;8.38;50.35;100720.44;4971812;28;20041;-71
2024/01/16 10:27:35;;;;;;;5.97;3.88;;;8.40;99.90;;;8.28;51.16;100723.97;4971911;28;20118;-70
2024/01/16 10:30:05;;;;;;;7.47;4.10;;;8.20;99.90;;;8.74;52.62;100720.50;4972135;28;20038;-71